Time,TemperatureF,DewpointF,PressureIn,WindDirection,WindDirectionDegrees,WindSpeedMPH,WindSpeedGustMPH,Humidity,HourlyPrecipIn,Conditions,Clouds,dailyrainin,SoftwareType,DateUTC
2013-05-23 00:05:00,62.8,61.9,29.80,NW,312,0.0,0.0,97,0.00,,,0.00,Wunderground v.1.15,2013-05-23 04:05:00,
2013-05-23 00:10:00,62.8,61.9,29.80,NW,312,0.0,0.0,97,0.00,,,0.00,Wunderground v.1.15,2013-05-23 04:10:00,
2013-05-23 00:15:00,62.8,61.9,29.80,NW,312,0.0,0.0,97,0.00,,,0.00,Wunderground v.1.15,2013-05-23 04:15:00,
2013-05-23 00:20:00,62.8,61.9,29.80,NW,312,0.0,0.0,97,0.00,,,0.00,Wunderground v.1.15,2013-05-23 04:20:00,
2013-05-23 00:25:00,62.7,61.8,29.79,NW,312,0.0,0.0,97,0.00,,,0.00,Wunderground v.1.15,2013-05-23 04:25:00,
2013-05-23 00:35:00,62.7,61.8,29.79,NW,312,0.0,0.0,97,0.00,,,0.00,Wunderground v.1.15,2013-05-23 04:35:00,
2013-05-23 00:40:00,62.7,61.8,29.79,NW,312,0.0,0.0,97,0.00,,,0.00,Wunderground v.1.15,2013-05-23 04:40:00,
2013-05-23 00:50:00,62.6,61.7,29.79,WSW,246,0.0,1.0,97,0.00,,,0.00,Wunderground v.1.15,2013-05-23 04:50:00,
2013-05-23 00:55:00,62.6,61.7,29.79,WSW,246,0.0,1.0,97,0.00,,,0.00,Wunderground v.1.15,2013-05-23 04:55:00,
2013-05-23 01:00:00,62.6,61.7,29.79,WSW,246,0.0,0.0,97,0.00,,,0.00,Wunderground v.1.15,2013-05-23 05:00:00,
2013-05-23 01:05:00,62.6,61.7,29.80,WSW,246,0.0,0.0,97,0.00,,,0.00,Wunderground v.1.15,2013-05-23 05:05:00,
2013-05-23 01:15:00,62.6,61.7,29.79,WSW,246,0.0,0.0,97,0.00,,,0.00,Wunderground v.1.15,2013-05-23 05:15:00,
2013-05-23 01:25:00,62.6,61.7,29.79,WSW,247,0.0,0.0,97,0.00,,,0.00,Wunderground v.1.15,2013-05-23 05:25:00,
2013-05-23 01:35:00,62.7,61.8,29.80,SSW,212,0.0,0.0,97,0.00,,,0.00,Wunderground v.1.15,2013-05-23 05:35:00,
2013-05-23 01:45:00,62.6,61.7,29.79,SSW,212,0.0,0.0,97,0.00,,,0.00,Wunderground v.1.15,2013-05-23 05:45:00,
2013-05-23 01:55:00,62.5,61.6,29.79,WNW,300,0.0,2.0,97,0.00,,,0.00,Wunderground v.1.15,2013-05-23 05:55:00,
2013-05-23 02:05:00,62.5,61.6,29.79,NNW,341,0.0,0.0,97,0.00,,,0.00,Wunderground v.1.15,2013-05-23 06:05:00,
2013-05-23 02:15:00,62.5,61.6,29.79,West,264,0.0,1.0,97,0.00,,,0.00,Wunderground v.1.15,2013-05-23 06:15:00,
2013-05-23 02:25:00,62.5,61.6,29.79,West,264,0.0,0.0,97,0.00,,,0.00,Wunderground v.1.15,2013-05-23 06:25:00,
2013-05-23 02:35:00,62.4,61.5,29.79,ESE,120,0.0,0.0,97,0.00,,,0.00,Wunderground v.1.15,2013-05-23 06:35:00,
2013-05-23 02:45:00,62.2,61.3,29.79,ESE,120,0.0,0.0,97,0.00,,,0.00,Wunderground v.1.15,2013-05-23 06:45:00,
2013-05-23 02:50:00,62.2,61.3,29.78,ESE,120,0.0,0.0,97,0.00,,,0.00,Wunderground v.1.15,2013-05-23 06:50:00,
2013-05-23 03:00:00,62.1,61.2,29.78,ESE,120,0.0,0.0,97,0.00,,,0.00,Wunderground v.1.15,2013-05-23 07:00:00,
2013-05-23 03:05:00,62.1,61.2,29.78,ESE,120,0.0,0.0,97,0.00,,,0.00,Wunderground v.1.15,2013-05-23 07:05:00,
2013-05-23 03:15:00,62.0,61.1,29.77,ESE,120,0.0,1.0,97,0.00,,,0.00,Wunderground v.1.15,2013-05-23 07:15:00,
2013-05-23 03:20:00,62.0,61.4,29.77,North,10,0.0,1.0,98,0.00,,,0.00,Wunderground v.1.15,2013-05-23 07:20:00,
2013-05-23 03:30:00,62.1,61.5,29.77,WNW,298,0.0,0.0,98,0.00,,,0.00,Wunderground v.1.15,2013-05-23 07:30:00,
2013-05-23 03:40:00,62.0,61.1,29.77,East,81,0.0,2.0,97,0.00,,,0.00,Wunderground v.1.15,2013-05-23 07:40:00,
2013-05-23 03:50:00,62.1,61.5,29.77,WNW,289,0.0,2.0,98,0.00,,,0.00,Wunderground v.1.15,2013-05-23 07:50:00,
2013-05-23 03:55:00,62.1,61.5,29.77,WNW,295,0.0,2.0,98,0.00,,,0.00,Wunderground v.1.15,2013-05-23 07:55:00,
2013-05-23 04:05:00,62.0,61.1,29.78,West,280,1.0,1.0,97,0.00,,,0.00,Wunderground v.1.15,2013-05-23 08:05:00,
2013-05-23 04:15:00,61.9,61.0,29.77,WNW,285,0.0,1.0,97,0.00,,,0.00,Wunderground v.1.15,2013-05-23 08:15:00,
2013-05-23 04:25:00,61.9,61.3,29.77,WNW,284,0.0,0.0,98,0.00,,,0.00,Wunderground v.1.15,2013-05-23 08:25:00,
2013-05-23 04:35:00,61.9,61.3,29.77,WNW,285,0.0,0.0,98,0.00,,,0.00,Wunderground v.1.15,2013-05-23 08:35:00,
2013-05-23 04:45:00,61.9,61.3,29.77,WNW,284,0.0,0.0,98,0.00,,,0.00,Wunderground v.1.15,2013-05-23 08:45:00,
2013-05-23 04:55:00,61.8,61.2,29.77,WNW,284,0.0,0.0,98,0.00,,,0.00,Wunderground v.1.15,2013-05-23 08:55:00,
2013-05-23 05:05:00,61.8,61.2,29.77,WNW,284,0.0,0.0,98,0.00,,,0.00,Wunderground v.1.15,2013-05-23 09:05:00,
2013-05-23 05:15:00,61.9,61.3,29.77,WNW,285,0.0,0.0,98,0.00,,,0.00,Wunderground v.1.15,2013-05-23 09:15:00,
2013-05-23 05:25:00,61.8,61.2,29.77,WNW,284,0.0,0.0,98,0.00,,,0.00,Wunderground v.1.15,2013-05-23 09:25:00,
2013-05-23 05:30:00,61.7,61.1,29.77,WNW,285,0.0,0.0,98,0.00,,,0.00,Wunderground v.1.15,2013-05-23 09:30:00,
2013-05-23 05:40:00,61.7,61.1,29.77,NNW,328,0.0,0.0,98,0.00,,,0.00,Wunderground v.1.15,2013-05-23 09:40:00,
2013-05-23 05:50:00,61.8,61.2,29.77,NNW,328,0.0,0.0,98,0.00,,,0.00,Wunderground v.1.15,2013-05-23 09:50:00,
2013-05-23 06:00:00,61.8,61.2,29.77,NNW,328,0.0,0.0,98,0.00,,,0.01,Wunderground v.1.15,2013-05-23 10:00:00,
2013-05-23 06:05:00,61.8,61.2,29.77,NNW,345,0.0,0.0,98,0.00,,,0.01,Wunderground v.1.15,2013-05-23 10:05:00,
2013-05-23 06:15:00,62.0,61.4,29.78,NNW,345,0.0,0.0,98,0.00,,,0.01,Wunderground v.1.15,2013-05-23 10:15:00,
2013-05-23 06:20:00,62.0,61.4,29.78,NNW,345,0.0,0.0,98,0.00,,,0.01,Wunderground v.1.15,2013-05-23 10:20:00,
2013-05-23 06:30:00,61.9,61.3,29.79,NNW,345,0.0,0.0,98,0.00,,,0.01,Wunderground v.1.15,2013-05-23 10:30:00,
2013-05-23 06:40:00,61.8,61.2,29.79,NNW,345,0.0,0.0,98,0.00,,,0.01,Wunderground v.1.15,2013-05-23 10:40:00,
2013-05-23 06:45:00,61.9,61.3,29.79,NNW,345,0.0,0.0,98,0.00,,,0.01,Wunderground v.1.15,2013-05-23 10:45:00,
2013-05-23 06:55:00,62.0,61.4,29.80,NNW,345,0.0,0.0,98,0.00,,,0.02,Wunderground v.1.15,2013-05-23 10:55:00,
2013-05-23 07:05:00,62.3,61.7,29.80,NNW,345,0.0,0.0,98,0.00,,,0.02,Wunderground v.1.15,2013-05-23 11:05:00,
2013-05-23 07:15:00,62.3,61.7,29.80,NNW,345,0.0,0.0,98,0.00,,,0.02,Wunderground v.1.15,2013-05-23 11:15:00,
2013-05-23 07:20:00,62.3,61.7,29.80,NNW,345,0.0,0.0,98,0.00,,,0.02,Wunderground v.1.15,2013-05-23 11:20:00,
2013-05-23 07:30:00,62.4,61.8,29.80,NNW,345,0.0,0.0,98,0.00,,,0.02,Wunderground v.1.15,2013-05-23 11:30:00,
2013-05-23 07:40:00,62.9,62.3,29.80,NNW,345,0.0,0.0,98,0.00,,,0.03,Wunderground v.1.15,2013-05-23 11:40:00,
2013-05-23 07:50:00,63.4,62.8,29.80,NNW,345,0.0,0.0,98,0.00,,,0.03,Wunderground v.1.15,2013-05-23 11:50:00,
2013-05-23 08:00:00,63.5,63.2,29.80,NNW,345,0.0,0.0,99,0.00,,,0.03,Wunderground v.1.15,2013-05-23 12:00:00,
2013-05-23 08:05:00,63.4,62.8,29.80,NNW,345,0.0,0.0,98,0.00,,,0.03,Wunderground v.1.15,2013-05-23 12:05:00,
2013-05-23 08:15:00,63.5,62.9,29.80,NNW,344,0.0,0.0,98,0.00,,,0.03,Wunderground v.1.15,2013-05-23 12:15:00,
2013-05-23 08:25:00,63.6,63.0,29.80,NNW,345,0.0,0.0,98,0.00,,,0.03,Wunderground v.1.15,2013-05-23 12:25:00,
2013-05-23 08:35:00,64.0,63.4,29.80,East,81,0.0,0.0,98,0.00,,,0.03,Wunderground v.1.15,2013-05-23 12:35:00,
2013-05-23 08:45:00,64.0,63.4,29.80,East,81,0.0,0.0,98,0.00,,,0.03,Wunderground v.1.15,2013-05-23 12:45:00,
2013-05-23 08:55:00,64.2,63.9,29.80,East,81,0.0,0.0,99,0.00,,,0.03,Wunderground v.1.15,2013-05-23 12:55:00,
2013-05-23 09:05:00,64.2,63.6,29.80,East,81,0.0,0.0,98,0.00,,,0.03,Wunderground v.1.15,2013-05-23 13:05:00,
2013-05-23 09:15:00,64.3,63.7,29.80,East,81,0.0,0.0,98,0.00,,,0.03,Wunderground v.1.15,2013-05-23 13:15:00,
2013-05-23 09:25:00,64.5,63.9,29.81,East,81,0.0,0.0,98,0.00,,,0.03,Wunderground v.1.15,2013-05-23 13:25:00,
2013-05-23 09:35:00,64.7,64.4,29.80,East,81,0.0,0.0,99,0.00,,,0.03,Wunderground v.1.15,2013-05-23 13:35:00,
2013-05-23 09:45:00,64.6,64.0,29.81,East,81,0.0,0.0,98,0.00,,,0.03,Wunderground v.1.15,2013-05-23 13:45:00,
2013-05-23 09:50:00,64.8,64.2,29.80,East,81,0.0,0.0,98,0.00,,,0.03,Wunderground v.1.15,2013-05-23 13:50:00,
2013-05-23 10:00:00,65.6,65.3,29.81,East,81,0.0,0.0,99,0.00,,,0.03,Wunderground v.1.15,2013-05-23 14:00:00,
2013-05-23 10:05:00,66.0,65.7,29.81,East,81,0.0,0.0,99,0.00,,,0.03,Wunderground v.1.15,2013-05-23 14:05:00,
2013-05-23 10:15:00,65.7,65.1,29.80,East,81,0.0,0.0,98,0.00,,,0.03,Wunderground v.1.15,2013-05-23 14:15:00,
2013-05-23 10:25:00,66.2,65.6,29.80,East,81,0.0,0.0,98,0.00,,,0.03,Wunderground v.1.15,2013-05-23 14:25:00,
2013-05-23 10:35:00,67.3,66.7,29.80,East,87,0.0,0.0,98,0.00,,,0.03,Wunderground v.1.15,2013-05-23 14:35:00,
2013-05-23 10:45:00,68.2,67.6,29.80,ENE,64,0.0,0.0,98,0.00,,,0.03,Wunderground v.1.15,2013-05-23 14:45:00,
2013-05-23 10:55:00,68.4,66.9,29.80,ENE,64,0.0,1.0,95,0.00,,,0.03,Wunderground v.1.15,2013-05-23 14:55:00,
2013-05-23 11:05:00,68.8,67.0,29.80,ENE,64,0.0,1.0,94,0.00,,,0.03,Wunderground v.1.15,2013-05-23 15:05:00,
2013-05-23 11:15:00,70.1,67.3,29.80,SSE,150,1.0,1.0,91,0.00,,,0.03,Wunderground v.1.15,2013-05-23 15:15:00,
2013-05-23 11:25:00,71.2,65.8,29.80,West,276,2.0,3.0,83,0.00,,,0.03,Wunderground v.1.15,2013-05-23 15:25:00,
2013-05-23 11:30:00,71.9,66.1,29.80,SW,225,1.0,4.0,82,0.00,,,0.03,Wunderground v.1.15,2013-05-23 15:30:00,
2013-05-23 11:40:00,72.3,66.1,29.80,West,276,3.0,3.0,81,0.00,,,0.03,Wunderground v.1.15,2013-05-23 15:40:00,
2013-05-23 11:50:00,72.8,65.9,29.80,WSW,244,3.0,6.0,79,0.00,,,0.03,Wunderground v.1.15,2013-05-23 15:50:00,
2013-05-23 11:55:00,73.3,65.3,29.80,SW,235,3.0,8.0,76,0.00,,,0.03,Wunderground v.1.15,2013-05-23 15:55:00,
2013-05-23 12:05:00,74.6,66.9,29.79,SSW,212,4.0,8.0,77,0.00,,,0.03,Wunderground v.1.15,2013-05-23 16:05:00,
2013-05-23 12:15:00,75.8,64.5,29.79,SW,224,4.0,4.0,68,0.00,,,0.03,Wunderground v.1.15,2013-05-23 16:15:00,
2013-05-23 12:25:00,75.6,63.9,29.79,West,262,5.0,7.0,67,0.00,,,0.03,Wunderground v.1.15,2013-05-23 16:25:00,
2013-05-23 12:30:00,75.1,63.0,29.79,SW,217,6.0,6.0,66,0.00,,,0.03,Wunderground v.1.15,2013-05-23 16:30:00,
2013-05-23 12:40:00,75.8,65.7,29.79,SSW,211,4.0,4.0,71,0.00,,,0.03,Wunderground v.1.15,2013-05-23 16:40:00,
2013-05-23 12:50:00,76.4,63.8,29.78,NW,315,4.0,4.0,65,0.00,,,0.03,Wunderground v.1.15,2013-05-23 16:50:00,
2013-05-23 13:00:00,76.6,62.6,29.77,NW,307,3.0,3.0,62,0.00,,,0.03,Wunderground v.1.15,2013-05-23 17:00:00,
2013-05-23 13:05:00,77.0,65.6,29.77,WSW,245,4.0,4.0,68,0.00,,,0.03,Wunderground v.1.15,2013-05-23 17:05:00,
2013-05-23 13:15:00,77.7,63.6,29.77,SW,220,4.0,10.0,62,0.00,,,0.03,Wunderground v.1.15,2013-05-23 17:15:00,
2013-05-23 13:25:00,76.2,65.7,29.77,SW,235,4.0,8.0,70,0.00,,,0.03,Wunderground v.1.15,2013-05-23 17:25:00,
2013-05-23 13:35:00,78.1,63.6,29.76,WSW,241,4.0,5.0,61,0.00,,,0.03,Wunderground v.1.15,2013-05-23 17:35:00,
2013-05-23 13:45:00,80.0,61.9,29.76,WSW,243,4.0,5.0,54,0.00,,,0.03,Wunderground v.1.15,2013-05-23 17:45:00,
2013-05-23 13:55:00,79.4,63.3,29.75,SW,224,5.0,5.0,58,0.00,,,0.03,Wunderground v.1.15,2013-05-23 17:55:00,
2013-05-23 14:05:00,80.2,61.5,29.74,NW,310,4.0,4.0,53,0.00,,,0.03,Wunderground v.1.15,2013-05-23 18:05:00,
2013-05-23 14:15:00,80.4,66.2,29.74,WSW,238,3.0,5.0,62,0.00,,,0.03,Wunderground v.1.15,2013-05-23 18:15:00,
2013-05-23 14:20:00,80.5,61.8,29.74,SW,214,3.0,3.0,53,0.00,,,0.03,Wunderground v.1.15,2013-05-23 18:20:00,
2013-05-23 14:30:00,81.8,60.8,29.73,WSW,249,4.0,5.0,49,0.00,,,0.03,Wunderground v.1.15,2013-05-23 18:30:00,
2013-05-23 14:40:00,82.3,62.4,29.73,SW,214,3.0,7.0,51,0.00,,,0.03,Wunderground v.1.15,2013-05-23 18:40:00,
2013-05-23 14:45:00,83.2,60.9,29.72,SSW,213,4.0,7.0,47,0.00,,,0.03,Wunderground v.1.15,2013-05-23 18:45:00,
2013-05-23 14:55:00,83.0,61.9,29.72,WSW,249,4.0,4.0,49,0.00,,,0.03,Wunderground v.1.15,2013-05-23 18:55:00,
2013-05-23 15:05:00,82.8,58.7,29.71,WSW,243,5.0,5.0,44,0.00,,,0.03,Wunderground v.1.15,2013-05-23 19:05:00,
2013-05-23 15:15:00,83.9,65.5,29.71,West,273,3.0,8.0,54,0.00,,,0.03,Wunderground v.1.15,2013-05-23 19:15:00,
2013-05-23 15:25:00,84.7,64.6,29.70,WSW,237,2.0,5.0,51,0.00,,,0.03,Wunderground v.1.15,2013-05-23 19:25:00,
2013-05-23 15:35:00,84.9,60.6,29.70,WSW,240,4.0,4.0,44,0.00,,,0.03,Wunderground v.1.15,2013-05-23 19:35:00,
2013-05-23 15:45:00,84.5,64.4,29.70,South,191,3.0,5.0,51,0.00,,,0.03,Wunderground v.1.15,2013-05-23 19:45:00,
2013-05-23 15:55:00,84.4,66.5,29.70,SW,214,1.0,2.0,55,0.00,,,0.03,Wunderground v.1.15,2013-05-23 19:55:00,
2013-05-23 16:05:00,82.9,67.6,29.70,West,278,1.0,2.0,60,0.00,,,0.03,Wunderground v.1.15,2013-05-23 20:05:00,
2013-05-23 16:15:00,83.0,69.1,29.69,WSW,258,1.0,1.0,63,0.00,,,0.03,Wunderground v.1.15,2013-05-23 20:15:00,
2013-05-23 16:25:00,83.9,68.0,29.69,SSW,198,1.0,4.0,59,0.00,,,0.03,Wunderground v.1.15,2013-05-23 20:25:00,
2013-05-23 16:35:00,82.9,64.5,29.69,NW,308,1.0,2.0,54,0.00,,,0.03,Wunderground v.1.15,2013-05-23 20:35:00,
2013-05-23 16:40:00,81.6,65.9,29.69,West,272,1.0,1.0,59,0.00,,,0.03,Wunderground v.1.15,2013-05-23 20:40:00,
2013-05-23 16:50:00,81.5,66.8,29.69,West,263,0.0,0.0,61,0.00,,,0.03,Wunderground v.1.15,2013-05-23 20:50:00,
2013-05-23 17:00:00,83.4,67.1,29.68,East,97,0.0,1.0,58,0.00,,,0.03,Wunderground v.1.15,2013-05-23 21:00:00,
2013-05-23 17:05:00,83.8,64.8,29.68,East,99,0.0,2.0,53,0.00,,,0.03,Wunderground v.1.15,2013-05-23 21:05:00,
2013-05-23 17:15:00,81.9,65.2,29.68,East,98,0.0,0.0,57,0.00,,,0.03,Wunderground v.1.15,2013-05-23 21:15:00,
2013-05-23 17:25:00,80.5,66.3,29.70,West,266,1.0,2.0,62,0.00,,,0.03,Wunderground v.1.15,2013-05-23 21:25:00,
2013-05-23 17:30:00,78.2,59.1,29.71,SW,235,4.0,11.0,52,0.00,,,0.03,Wunderground v.1.15,2013-05-23 21:30:00,
2013-05-23 17:40:00,73.6,57.9,29.70,WNW,285,10.0,16.0,58,0.00,,,0.03,Wunderground v.1.15,2013-05-23 21:40:00,
2013-05-23 17:50:00,67.4,59.2,29.68,SSW,194,10.0,10.0,75,0.00,,,0.04,Wunderground v.1.15,2013-05-23 21:50:00,
2013-05-23 18:00:00,66.5,59.8,29.69,WSW,251,10.0,10.0,79,0.00,,,0.04,Wunderground v.1.15,2013-05-23 22:00:00,
2013-05-23 18:05:00,67.0,60.3,29.68,SW,217,10.0,10.0,79,0.00,,,0.04,Wunderground v.1.15,2013-05-23 22:05:00,
2013-05-23 18:15:00,67.7,61.0,29.69,West,271,7.0,8.0,79,0.00,,,0.04,Wunderground v.1.15,2013-05-23 22:15:00,
2013-05-23 18:25:00,68.0,60.5,29.69,West,263,6.0,8.0,77,0.00,,,0.04,Wunderground v.1.15,2013-05-23 22:25:00,
2013-05-23 18:35:00,68.3,60.4,29.68,SSW,201,5.0,8.0,76,0.00,,,0.04,Wunderground v.1.15,2013-05-23 22:35:00,
2013-05-23 18:45:00,68.5,61.0,29.69,SW,233,5.0,7.0,77,0.00,,,0.04,Wunderground v.1.15,2013-05-23 22:45:00,
2013-05-23 18:55:00,69.0,58.8,29.69,West,262,6.0,7.0,70,0.00,,,0.04,Wunderground v.1.15,2013-05-23 22:55:00,
2013-05-23 19:05:00,69.2,59.0,29.69,West,268,7.0,11.0,70,0.00,,,0.04,Wunderground v.1.15,2013-05-23 23:05:00,
2013-05-23 19:15:00,68.9,58.7,29.68,SSW,201,9.0,9.0,70,0.00,,,0.04,Wunderground v.1.15,2013-05-23 23:15:00,
2013-05-23 19:20:00,68.7,59.3,29.69,SW,220,9.0,10.0,72,0.00,,,0.04,Wunderground v.1.15,2013-05-23 23:20:00,
2013-05-23 19:30:00,68.6,58.4,29.69,WSW,241,7.0,10.0,70,0.00,,,0.04,Wunderground v.1.15,2013-05-23 23:30:00,
2013-05-23 19:40:00,68.4,57.8,29.68,WSW,241,8.0,13.0,69,0.00,,,0.04,Wunderground v.1.15,2013-05-23 23:40:00,
2013-05-23 19:45:00,68.5,57.9,29.68,SW,232,9.0,13.0,69,0.00,,,0.04,Wunderground v.1.15,2013-05-23 23:45:00,
2013-05-23 19:55:00,68.5,58.3,29.68,WSW,243,10.0,16.0,70,0.00,,,0.04,Wunderground v.1.15,2013-05-23 23:55:00,
2013-05-23 20:05:00,68.4,58.2,29.69,WSW,252,10.0,11.0,70,0.00,,,0.04,Wunderground v.1.15,2013-05-24 00:05:00,
2013-05-23 20:15:00,68.2,58.4,29.70,WSW,255,11.0,14.0,71,0.00,,,0.04,Wunderground v.1.15,2013-05-24 00:15:00,
2013-05-23 20:25:00,67.8,58.1,29.71,WSW,237,10.0,11.0,71,0.00,,,0.04,Wunderground v.1.15,2013-05-24 00:25:00,
2013-05-23 20:35:00,67.5,58.2,29.71,SSW,201,8.0,9.0,72,0.00,,,0.04,Wunderground v.1.15,2013-05-24 00:35:00,
2013-05-23 20:45:00,67.0,58.4,29.72,SW,226,6.0,12.0,74,0.00,,,0.04,Wunderground v.1.15,2013-05-24 00:45:00,
2013-05-23 20:55:00,66.9,58.3,29.72,SW,222,7.0,10.0,74,0.00,,,0.04,Wunderground v.1.15,2013-05-24 00:55:00,
2013-05-23 21:05:00,66.8,58.6,29.73,West,260,6.0,6.0,75,0.00,,,0.04,Wunderground v.1.15,2013-05-24 01:05:00,
2013-05-23 21:15:00,66.7,58.1,29.72,SW,231,2.0,4.0,74,0.00,,,0.04,Wunderground v.1.15,2013-05-24 01:15:00,
2013-05-23 21:25:00,66.6,58.4,29.73,NNW,329,1.0,6.0,75,0.00,,,0.04,Wunderground v.1.15,2013-05-24 01:25:00,
2013-05-23 21:35:00,66.4,58.2,29.73,NW,323,2.0,3.0,75,0.00,,,0.04,Wunderground v.1.15,2013-05-24 01:35:00,
2013-05-23 21:45:00,66.1,58.3,29.74,NW,309,2.0,8.0,76,0.00,,,0.04,Wunderground v.1.15,2013-05-24 01:45:00,
2013-05-23 21:55:00,65.9,57.7,29.74,WSW,252,2.0,7.0,75,0.00,,,0.04,Wunderground v.1.15,2013-05-24 01:55:00,
2013-05-23 22:05:00,65.9,57.7,29.75,WSW,240,1.0,2.0,75,0.00,,,0.04,Wunderground v.1.15,2013-05-24 02:05:00,
2013-05-23 22:15:00,65.7,57.9,29.75,WSW,237,0.0,1.0,76,0.00,,,0.04,Wunderground v.1.15,2013-05-24 02:15:00,
2013-05-23 22:25:00,65.3,57.9,29.75,West,278,0.0,1.0,77,0.00,,,0.04,Wunderground v.1.15,2013-05-24 02:25:00,
2013-05-23 22:35:00,65.2,57.8,29.75,SSE,157,2.0,2.0,77,0.00,,,0.04,Wunderground v.1.15,2013-05-24 02:35:00,
2013-05-23 22:40:00,65.2,57.8,29.76,SW,233,1.0,2.0,77,0.00,,,0.04,Wunderground v.1.15,2013-05-24 02:40:00,
2013-05-23 22:50:00,65.2,58.9,29.75,West,269,0.0,0.0,80,0.00,,,0.04,Wunderground v.1.15,2013-05-24 02:50:00,
2013-05-23 23:00:00,65.0,58.3,29.75,West,260,0.0,1.0,79,0.00,,,0.04,Wunderground v.1.15,2013-05-24 03:00:00,
2013-05-23 23:05:00,64.9,58.6,29.75,West,260,1.0,3.0,80,0.00,,,0.04,Wunderground v.1.15,2013-05-24 03:05:00,
2013-05-23 23:15:00,64.7,57.7,29.75,South,179,2.0,2.0,78,0.00,,,0.04,Wunderground v.1.15,2013-05-24 03:15:00,
2013-05-23 23:25:00,64.7,58.0,29.75,SW,228,1.0,2.0,79,0.00,,,0.04,Wunderground v.1.15,2013-05-24 03:25:00,
2013-05-23 23:35:00,64.6,57.6,29.74,West,274,1.0,1.0,78,0.00,,,0.04,Wunderground v.1.15,2013-05-24 03:35:00,
2013-05-23 23:45:00,64.6,57.2,29.74,NE,45,3.0,3.0,77,0.00,,,0.04,Wunderground v.1.15,2013-05-24 03:45:00,
2013-05-23 23:55:00,64.4,56.3,29.74,North,349,5.0,7.0,75,0.00,,,0.04,Wunderground v.1.15,2013-05-24 03:55:00,